Rembert, South Carolina
Current Conditions -  °F | °C
As of 1:58 PM on Tuesday 21 Oct 2014 (Local Time) from KSSC Reporting Station
Clear Clear  
Wind Chill: 76°   Ceiling: Unl
Heat Index: 78°   Visibility: 10mi
Dew Point: 49°   Wind: 8mph
Humidity: 38%   Direction: 270°W
Pressure: 29.87"   Gusts: NA
Location:  34.1°N, 80.53°W
Report Text: KSSC 211758Z AUTO 27007KT 10SM CLR 25/09 A2987 RMK AO2 SLP115 T02450092 10246 20112 57026 $
Loading
Personal Weather Stations






























Interactive Weather Map New forecast layout! Learn more

10-Day Weather Forecast

Advertisements
Track Severe Weather on mobile